sensor_id;sensor_type;location;lat;lon;timestamp;P1;durP1;ratioP1;P2;durP2;ratioP2
25327;SDS011;13279;51.300;12.394;2023-07-22T00:00:32;12.07;;;4.47;;
25327;SDS011;13279;51.300;12.394;2023-07-22T00:03:01;11.77;;;4.60;;
25327;SDS011;13279;51.300;12.394;2023-07-22T00:05:28;8.90;;;4.47;;
25327;SDS011;13279;51.300;12.394;2023-07-22T00:07:56;17.00;;;5.23;;
25327;SDS011;13279;51.300;12.394;2023-07-22T00:10:24;12.67;;;4.80;;
25327;SDS011;13279;51.300;12.394;2023-07-22T00:12:51;11.10;;;4.37;;
25327;SDS011;13279;51.300;12.394;2023-07-22T00:15:19;8.70;;;4.50;;
25327;SDS011;13279;51.300;12.394;2023-07-22T00:17:49;11.83;;;5.20;;
25327;SDS011;13279;51.300;12.394;2023-07-22T00:20:19;9.73;;;5.50;;
25327;SDS011;13279;51.300;12.394;2023-07-22T00:22:47;11.43;;;4.80;;
25327;SDS011;13279;51.300;12.394;2023-07-22T00:25:16;11.93;;;5.17;;
25327;SDS011;13279;51.300;12.394;2023-07-22T00:27:44;9.60;;;5.97;;
25327;SDS011;13279;51.300;12.394;2023-07-22T00:30:12;12.97;;;5.83;;
25327;SDS011;13279;51.300;12.394;2023-07-22T00:32:40;20.67;;;5.80;;
25327;SDS011;13279;51.300;12.394;2023-07-22T00:35:07;12.80;;;6.53;;
25327;SDS011;13279;51.300;12.394;2023-07-22T00:37:38;6.50;;;5.90;;
25327;SDS011;13279;51.300;12.394;2023-07-22T00:40:07;10.43;;;6.27;;
25327;SDS011;13279;51.300;12.394;2023-07-22T00:42:37;10.53;;;6.77;;
25327;SDS011;13279;51.300;12.394;2023-07-22T00:45:06;11.37;;;6.10;;
25327;SDS011;13279;51.300;12.394;2023-07-22T00:47:34;15.40;;;7.33;;
25327;SDS011;13279;51.300;12.394;2023-07-22T00:50:02;11.53;;;7.20;;
25327;SDS011;13279;51.300;12.394;2023-07-22T00:52:31;12.67;;;7.30;;
25327;SDS011;13279;51.300;12.394;2023-07-22T00:55:01;9.43;;;7.60;;
25327;SDS011;13279;51.300;12.394;2023-07-22T00:57:29;12.13;;;7.57;;
25327;SDS011;13279;51.300;12.394;2023-07-22T00:59:56;16.73;;;6.93;;
25327;SDS011;13279;51.300;12.394;2023-07-22T01:02:24;14.70;;;7.60;;
25327;SDS011;13279;51.300;12.394;2023-07-22T01:04:52;11.83;;;6.93;;
25327;SDS011;13279;51.300;12.394;2023-07-22T01:07:20;12.87;;;8.57;;
25327;SDS011;13279;51.300;12.394;2023-07-22T01:09:47;9.40;;;6.93;;
25327;SDS011;13279;51.300;12.394;2023-07-22T01:12:18;12.90;;;7.03;;
25327;SDS011;13279;51.300;12.394;2023-07-22T01:14:45;11.70;;;7.83;;
25327;SDS011;13279;51.300;12.394;2023-07-22T01:17:13;12.67;;;8.07;;
25327;SDS011;13279;51.300;12.394;2023-07-22T01:19:40;11.03;;;6.93;;
25327;SDS011;13279;51.300;12.394;2023-07-22T01:22:08;9.67;;;6.17;;
25327;SDS011;13279;51.300;12.394;2023-07-22T01:24:39;9.23;;;7.10;;
25327;SDS011;13279;51.300;12.394;2023-07-22T01:27:07;7.30;;;6.03;;
25327;SDS011;13279;51.300;12.394;2023-07-22T01:29:35;8.57;;;6.67;;
25327;SDS011;13279;51.300;12.394;2023-07-22T01:32:03;16.27;;;7.23;;
25327;SDS011;13279;51.300;12.394;2023-07-22T01:34:31;12.77;;;6.80;;
25327;SDS011;13279;51.300;12.394;2023-07-22T01:36:59;8.67;;;7.17;;
25327;SDS011;13279;51.300;12.394;2023-07-22T01:39:26;7.50;;;6.63;;
25327;SDS011;13279;51.300;12.394;2023-07-22T01:41:55;8.00;;;7.20;;
25327;SDS011;13279;51.300;12.394;2023-07-22T01:44:23;11.23;;;7.47;;
25327;SDS011;13279;51.300;12.394;2023-07-22T01:46:51;8.03;;;6.20;;
25327;SDS011;13279;51.300;12.394;2023-07-22T01:49:19;8.77;;;6.97;;
25327;SDS011;13279;51.300;12.394;2023-07-22T01:51:46;11.83;;;7.67;;
25327;SDS011;13279;51.300;12.394;2023-07-22T01:54:14;12.47;;;7.60;;
25327;SDS011;13279;51.300;12.394;2023-07-22T01:56:41;8.37;;;7.43;;
25327;SDS011;13279;51.300;12.394;2023-07-22T01:59:10;10.77;;;7.57;;
25327;SDS011;13279;51.300;12.394;2023-07-22T02:01:38;10.70;;;7.83;;
25327;SDS011;13279;51.300;12.394;2023-07-22T02:04:06;14.00;;;8.27;;
25327;SDS011;13279;51.300;12.394;2023-07-22T02:06:33;15.07;;;8.63;;
25327;SDS011;13279;51.300;12.394;2023-07-22T02:09:01;16.50;;;8.47;;
25327;SDS011;13279;51.300;12.394;2023-07-22T02:11:34;11.50;;;7.67;;
25327;SDS011;13279;51.300;12.394;2023-07-22T02:14:02;17.83;;;8.73;;
25327;SDS011;13279;51.300;12.394;2023-07-22T02:16:33;10.93;;;8.63;;
25327;SDS011;13279;51.300;12.394;2023-07-22T02:19:02;13.60;;;9.00;;
25327;SDS011;13279;51.300;12.394;2023-07-22T02:21:37;11.43;;;9.20;;
25327;SDS011;13279;51.300;12.394;2023-07-22T02:24:05;10.50;;;8.23;;
25327;SDS011;13279;51.300;12.394;2023-07-22T02:26:32;10.70;;;9.00;;
25327;SDS011;13279;51.300;12.394;2023-07-22T02:29:00;19.07;;;9.97;;
25327;SDS011;13279;51.300;12.394;2023-07-22T02:31:28;15.63;;;8.43;;
25327;SDS011;13279;51.300;12.394;2023-07-22T02:33:57;10.17;;;9.13;;
25327;SDS011;13279;51.300;12.394;2023-07-22T02:36:24;15.03;;;8.93;;
25327;SDS011;13279;51.300;12.394;2023-07-22T02:38:51;13.93;;;8.90;;
25327;SDS011;13279;51.300;12.394;2023-07-22T02:41:19;11.63;;;8.93;;
25327;SDS011;13279;51.300;12.394;2023-07-22T02:43:47;11.50;;;8.63;;
25327;SDS011;13279;51.300;12.394;2023-07-22T02:46:14;13.73;;;9.00;;
25327;SDS011;13279;51.300;12.394;2023-07-22T02:48:42;9.10;;;8.13;;
25327;SDS011;13279;51.300;12.394;2023-07-22T02:51:11;17.73;;;9.07;;
25327;SDS011;13279;51.300;12.394;2023-07-22T02:53:38;19.37;;;8.20;;
25327;SDS011;13279;51.300;12.394;2023-07-22T02:56:07;14.53;;;9.50;;
25327;SDS011;13279;51.300;12.394;2023-07-22T02:58:37;18.27;;;7.97;;
25327;SDS011;13279;51.300;12.394;2023-07-22T03:01:04;13.77;;;8.33;;
25327;SDS011;13279;51.300;12.394;2023-07-22T03:03:34;15.83;;;9.13;;
25327;SDS011;13279;51.300;12.394;2023-07-22T03:06:01;13.90;;;8.40;;
25327;SDS011;13279;51.300;12.394;2023-07-22T03:08:31;12.27;;;8.80;;
25327;SDS011;13279;51.300;12.394;2023-07-22T03:10:59;15.00;;;8.90;;
25327;SDS011;13279;51.300;12.394;2023-07-22T03:13:26;9.40;;;8.03;;
25327;SDS011;13279;51.300;12.394;2023-07-22T03:15:55;12.90;;;8.67;;
25327;SDS011;13279;51.300;12.394;2023-07-22T03:18:23;9.57;;;8.50;;
25327;SDS011;13279;51.300;12.394;2023-07-22T03:20:50;12.73;;;8.50;;
25327;SDS011;13279;51.300;12.394;2023-07-22T03:23:18;10.10;;;8.50;;
25327;SDS011;13279;51.300;12.394;2023-07-22T03:25:47;9.77;;;8.77;;
25327;SDS011;13279;51.300;12.394;2023-07-22T03:28:15;10.13;;;7.63;;
25327;SDS011;13279;51.300;12.394;2023-07-22T03:30:42;11.07;;;8.60;;
25327;SDS011;13279;51.300;12.394;2023-07-22T03:33:10;12.93;;;7.60;;
25327;SDS011;13279;51.300;12.394;2023-07-22T03:35:37;8.90;;;7.83;;
25327;SDS011;13279;51.300;12.394;2023-07-22T03:38:05;11.83;;;8.80;;
25327;SDS011;13279;51.300;12.394;2023-07-22T03:40:32;12.30;;;7.97;;
25327;SDS011;13279;51.300;12.394;2023-07-22T03:43:01;15.30;;;8.23;;
25327;SDS011;13279;51.300;12.394;2023-07-22T03:45:28;13.70;;;8.37;;
25327;SDS011;13279;51.300;12.394;2023-07-22T03:47:57;12.60;;;8.03;;
25327;SDS011;13279;51.300;12.394;2023-07-22T03:50:25;10.77;;;7.97;;
25327;SDS011;13279;51.300;12.394;2023-07-22T03:52:53;17.67;;;8.87;;
25327;SDS011;13279;51.300;12.394;2023-07-22T03:55:20;15.70;;;8.27;;
25327;SDS011;13279;51.300;12.394;2023-07-22T03:57:48;10.83;;;8.37;;
25327;SDS011;13279;51.300;12.394;2023-07-22T04:00:17;14.93;;;8.77;;
25327;SDS011;13279;51.300;12.394;2023-07-22T04:02:44;15.73;;;8.40;;
25327;SDS011;13279;51.300;12.394;2023-07-22T04:05:11;13.53;;;8.23;;
25327;SDS011;13279;51.300;12.394;2023-07-22T04:07:39;13.17;;;8.17;;
25327;SDS011;13279;51.300;12.394;2023-07-22T04:10:06;19.03;;;8.30;;
25327;SDS011;13279;51.300;12.394;2023-07-22T04:12:34;9.53;;;8.00;;
25327;SDS011;13279;51.300;12.394;2023-07-22T04:15:02;12.63;;;8.83;;
25327;SDS011;13279;51.300;12.394;2023-07-22T04:17:32;16.13;;;8.73;;
25327;SDS011;13279;51.300;12.394;2023-07-22T04:19:59;13.50;;;7.50;;
25327;SDS011;13279;51.300;12.394;2023-07-22T04:22:27;15.20;;;8.53;;
25327;SDS011;13279;51.300;12.394;2023-07-22T04:24:58;11.20;;;8.40;;
25327;SDS011;13279;51.300;12.394;2023-07-22T04:27:26;13.30;;;7.70;;
25327;SDS011;13279;51.300;12.394;2023-07-22T04:29:53;11.27;;;7.50;;
25327;SDS011;13279;51.300;12.394;2023-07-22T04:32:21;13.73;;;8.87;;
25327;SDS011;13279;51.300;12.394;2023-07-22T04:34:50;11.37;;;8.30;;
25327;SDS011;13279;51.300;12.394;2023-07-22T04:37:18;15.57;;;7.60;;
25327;SDS011;13279;51.300;12.394;2023-07-22T04:39:47;19.47;;;7.40;;
25327;SDS011;13279;51.300;12.394;2023-07-22T04:42:15;12.27;;;8.60;;
25327;SDS011;13279;51.300;12.394;2023-07-22T04:44:43;16.17;;;10.13;;
25327;SDS011;13279;51.300;12.394;2023-07-22T04:47:10;12.40;;;7.97;;
25327;SDS011;13279;51.300;12.394;2023-07-22T04:49:38;11.90;;;7.70;;
25327;SDS011;13279;51.300;12.394;2023-07-22T04:52:07;14.10;;;8.00;;
25327;SDS011;13279;51.300;12.394;2023-07-22T04:54:35;10.80;;;8.00;;
25327;SDS011;13279;51.300;12.394;2023-07-22T04:57:02;12.90;;;7.20;;
25327;SDS011;13279;51.300;12.394;2023-07-22T04:59:30;15.43;;;8.67;;
25327;SDS011;13279;51.300;12.394;2023-07-22T05:01:58;15.87;;;8.60;;
25327;SDS011;13279;51.300;12.394;2023-07-22T05:04:26;11.33;;;7.77;;
25327;SDS011;13279;51.300;12.394;2023-07-22T05:06:53;9.40;;;7.37;;
25327;SDS011;13279;51.300;12.394;2023-07-22T05:09:22;16.10;;;7.90;;
25327;SDS011;13279;51.300;12.394;2023-07-22T05:11:49;9.23;;;8.20;;
25327;SDS011;13279;51.300;12.394;2023-07-22T05:14:16;11.33;;;7.90;;
25327;SDS011;13279;51.300;12.394;2023-07-22T05:16:44;13.03;;;8.13;;
25327;SDS011;13279;51.300;12.394;2023-07-22T05:19:11;11.60;;;8.00;;
25327;SDS011;13279;51.300;12.394;2023-07-22T05:21:39;15.50;;;8.90;;
25327;SDS011;13279;51.300;12.394;2023-07-22T05:24:06;16.07;;;8.67;;
25327;SDS011;13279;51.300;12.394;2023-07-22T05:26:35;11.67;;;8.40;;
25327;SDS011;13279;51.300;12.394;2023-07-22T05:29:02;13.20;;;8.43;;
25327;SDS011;13279;51.300;12.394;2023-07-22T05:31:30;20.00;;;9.73;;
25327;SDS011;13279;51.300;12.394;2023-07-22T05:33:57;16.20;;;8.10;;
25327;SDS011;13279;51.300;12.394;2023-07-22T05:36:25;12.70;;;7.40;;
25327;SDS011;13279;51.300;12.394;2023-07-22T05:38:52;16.90;;;8.20;;
25327;SDS011;13279;51.300;12.394;2023-07-22T05:41:20;9.80;;;7.67;;
25327;SDS011;13279;51.300;12.394;2023-07-22T05:43:48;10.47;;;6.97;;
25327;SDS011;13279;51.300;12.394;2023-07-22T05:46:16;19.57;;;8.50;;
25327;SDS011;13279;51.300;12.394;2023-07-22T05:48:43;15.47;;;7.47;;
25327;SDS011;13279;51.300;12.394;2023-07-22T05:51:11;14.37;;;6.90;;
25327;SDS011;13279;51.300;12.394;2023-07-22T05:53:39;13.83;;;6.77;;
25327;SDS011;13279;51.300;12.394;2023-07-22T05:56:07;13.57;;;7.07;;
25327;SDS011;13279;51.300;12.394;2023-07-22T05:58:34;15.70;;;7.40;;
25327;SDS011;13279;51.300;12.394;2023-07-22T06:01:03;11.90;;;7.33;;
25327;SDS011;13279;51.300;12.394;2023-07-22T06:03:30;11.33;;;6.57;;
25327;SDS011;13279;51.300;12.394;2023-07-22T06:05:58;12.60;;;6.93;;
25327;SDS011;13279;51.300;12.394;2023-07-22T06:08:25;14.23;;;6.93;;
25327;SDS011;13279;51.300;12.394;2023-07-22T06:10:53;11.87;;;6.70;;
25327;SDS011;13279;51.300;12.394;2023-07-22T06:13:20;10.30;;;7.10;;
25327;SDS011;13279;51.300;12.394;2023-07-22T06:15:48;12.20;;;6.53;;
25327;SDS011;13279;51.300;12.394;2023-07-22T06:18:16;10.40;;;6.50;;
25327;SDS011;13279;51.300;12.394;2023-07-22T06:20:46;11.77;;;6.83;;
25327;SDS011;13279;51.300;12.394;2023-07-22T06:23:14;10.17;;;6.67;;
25327;SDS011;13279;51.300;12.394;2023-07-22T06:25:42;14.40;;;7.43;;
25327;SDS011;13279;51.300;12.394;2023-07-22T06:28:13;15.13;;;7.33;;
25327;SDS011;13279;51.300;12.394;2023-07-22T06:30:41;10.63;;;6.50;;
25327;SDS011;13279;51.300;12.394;2023-07-22T06:33:09;13.37;;;6.90;;
25327;SDS011;13279;51.300;12.394;2023-07-22T06:35:38;10.37;;;6.60;;
25327;SDS011;13279;51.300;12.394;2023-07-22T06:38:05;10.00;;;6.40;;
25327;SDS011;13279;51.300;12.394;2023-07-22T06:40:33;9.43;;;6.73;;
25327;SDS011;13279;51.300;12.394;2023-07-22T06:43:01;12.00;;;6.87;;
25327;SDS011;13279;51.300;12.394;2023-07-22T06:45:28;9.53;;;6.43;;
25327;SDS011;13279;51.300;12.394;2023-07-22T06:47:58;11.67;;;6.63;;
25327;SDS011;13279;51.300;12.394;2023-07-22T06:50:26;14.13;;;6.93;;
25327;SDS011;13279;51.300;12.394;2023-07-22T06:52:56;13.53;;;6.70;;
25327;SDS011;13279;51.300;12.394;2023-07-22T06:55:24;11.37;;;6.67;;
25327;SDS011;13279;51.300;12.394;2023-07-22T06:57:55;9.93;;;6.10;;
25327;SDS011;13279;51.300;12.394;2023-07-22T07:00:23;11.90;;;5.90;;
25327;SDS011;13279;51.300;12.394;2023-07-22T07:02:50;9.00;;;5.30;;
25327;SDS011;13279;51.300;12.394;2023-07-22T07:05:18;8.83;;;5.60;;
25327;SDS011;13279;51.300;12.394;2023-07-22T07:07:46;11.47;;;7.57;;
25327;SDS011;13279;51.300;12.394;2023-07-22T07:10:17;9.37;;;5.30;;
25327;SDS011;13279;51.300;12.394;2023-07-22T07:12:45;9.40;;;5.40;;
25327;SDS011;13279;51.300;12.394;2023-07-22T07:15:12;9.73;;;5.53;;
25327;SDS011;13279;51.300;12.394;2023-07-22T07:17:40;7.37;;;5.40;;
25327;SDS011;13279;51.300;12.394;2023-07-22T07:20:08;7.73;;;5.63;;
25327;SDS011;13279;51.300;12.394;2023-07-22T07:22:36;9.57;;;5.40;;
25327;SDS011;13279;51.300;12.394;2023-07-22T07:25:05;8.40;;;5.03;;
25327;SDS011;13279;51.300;12.394;2023-07-22T07:27:34;12.57;;;7.03;;
25327;SDS011;13279;51.300;12.394;2023-07-22T07:30:02;10.33;;;5.27;;
25327;SDS011;13279;51.300;12.394;2023-07-22T07:32:30;6.40;;;5.00;;
25327;SDS011;13279;51.300;12.394;2023-07-22T07:34:59;9.37;;;4.97;;
25327;SDS011;13279;51.300;12.394;2023-07-22T07:37:26;4.70;;;4.20;;
25327;SDS011;13279;51.300;12.394;2023-07-22T07:39:54;7.03;;;4.70;;
25327;SDS011;13279;51.300;12.394;2023-07-22T07:42:25;6.43;;;5.17;;
25327;SDS011;13279;51.300;12.394;2023-07-22T07:44:54;7.13;;;4.80;;
25327;SDS011;13279;51.300;12.394;2023-07-22T07:47:22;10.57;;;4.67;;
25327;SDS011;13279;51.300;12.394;2023-07-22T07:49:49;6.77;;;4.50;;
25327;SDS011;13279;51.300;12.394;2023-07-22T07:52:19;6.70;;;4.20;;
25327;SDS011;13279;51.300;12.394;2023-07-22T07:54:47;5.87;;;4.23;;
25327;SDS011;13279;51.300;12.394;2023-07-22T07:57:15;5.73;;;4.10;;
25327;SDS011;13279;51.300;12.394;2023-07-22T07:59:43;8.17;;;4.07;;
25327;SDS011;13279;51.300;12.394;2023-07-22T08:02:13;3.70;;;3.30;;
25327;SDS011;13279;51.300;12.394;2023-07-22T08:04:40;5.13;;;3.70;;
25327;SDS011;13279;51.300;12.394;2023-07-22T08:07:09;6.13;;;4.00;;
25327;SDS011;13279;51.300;12.394;2023-07-22T08:09:37;5.47;;;3.30;;
25327;SDS011;13279;51.300;12.394;2023-07-22T08:12:05;4.40;;;4.00;;
25327;SDS011;13279;51.300;12.394;2023-07-22T08:14:40;5.33;;;3.53;;
25327;SDS011;13279;51.300;12.394;2023-07-22T08:17:07;6.90;;;4.07;;
25327;SDS011;13279;51.300;12.394;2023-07-22T08:19:37;4.80;;;4.07;;
25327;SDS011;13279;51.300;12.394;2023-07-22T08:22:04;4.37;;;3.93;;
25327;SDS011;13279;51.300;12.394;2023-07-22T08:24:33;7.93;;;4.53;;
25327;SDS011;13279;51.300;12.394;2023-07-22T08:27:00;4.27;;;3.87;;
25327;SDS011;13279;51.300;12.394;2023-07-22T08:29:28;5.43;;;4.17;;
25327;SDS011;13279;51.300;12.394;2023-07-22T08:31:56;7.30;;;4.30;;
25327;SDS011;13279;51.300;12.394;2023-07-22T08:34:24;5.27;;;4.00;;
25327;SDS011;13279;51.300;12.394;2023-07-22T08:36:53;5.60;;;4.17;;
25327;SDS011;13279;51.300;12.394;2023-07-22T08:39:21;6.77;;;3.97;;
25327;SDS011;13279;51.300;12.394;2023-07-22T08:41:49;4.80;;;4.30;;
25327;SDS011;13279;51.300;12.394;2023-07-22T08:44:18;5.43;;;4.40;;
25327;SDS011;13279;51.300;12.394;2023-07-22T08:46:48;9.53;;;4.73;;
25327;SDS011;13279;51.300;12.394;2023-07-22T08:49:20;9.83;;;5.37;;
25327;SDS011;13279;51.300;12.394;2023-07-22T08:51:49;7.30;;;5.00;;
25327;SDS011;13279;51.300;12.394;2023-07-22T08:54:21;4.27;;;3.80;;
25327;SDS011;13279;51.300;12.394;2023-07-22T08:56:53;6.67;;;4.53;;
25327;SDS011;13279;51.300;12.394;2023-07-22T08:59:21;6.90;;;4.50;;
25327;SDS011;13279;51.300;12.394;2023-07-22T09:01:51;7.47;;;3.73;;
25327;SDS011;13279;51.300;12.394;2023-07-22T09:04:19;6.47;;;3.37;;
25327;SDS011;13279;51.300;12.394;2023-07-22T09:06:47;5.20;;;3.43;;
25327;SDS011;13279;51.300;12.394;2023-07-22T09:09:15;4.53;;;3.10;;
25327;SDS011;13279;51.300;12.394;2023-07-22T09:11:45;8.47;;;3.87;;
25327;SDS011;13279;51.300;12.394;2023-07-22T09:14:14;3.10;;;2.80;;
25327;SDS011;13279;51.300;12.394;2023-07-22T09:16:45;3.90;;;3.23;;
25327;SDS011;13279;51.300;12.394;2023-07-22T09:19:12;3.73;;;2.90;;
25327;SDS011;13279;51.300;12.394;2023-07-22T09:21:40;3.43;;;3.07;;
25327;SDS011;13279;51.300;12.394;2023-07-22T09:24:20;4.33;;;3.57;;
25327;SDS011;13279;51.300;12.394;2023-07-22T09:26:50;3.23;;;2.87;;
25327;SDS011;13279;51.300;12.394;2023-07-22T09:29:17;5.40;;;3.10;;
25327;SDS011;13279;51.300;12.394;2023-07-22T09:31:48;7.47;;;3.20;;
25327;SDS011;13279;51.300;12.394;2023-07-22T09:34:17;9.63;;;3.10;;
25327;SDS011;13279;51.300;12.394;2023-07-22T09:36:49;3.40;;;2.50;;
25327;SDS011;13279;51.300;12.394;2023-07-22T09:39:17;8.17;;;3.20;;
25327;SDS011;13279;51.300;12.394;2023-07-22T09:41:45;6.13;;;2.97;;
25327;SDS011;13279;51.300;12.394;2023-07-22T09:44:14;5.13;;;2.90;;
25327;SDS011;13279;51.300;12.394;2023-07-22T09:46:41;2.83;;;2.63;;
25327;SDS011;13279;51.300;12.394;2023-07-22T09:49:13;4.57;;;3.10;;
25327;SDS011;13279;51.300;12.394;2023-07-22T09:51:42;3.93;;;2.70;;
25327;SDS011;13279;51.300;12.394;2023-07-22T09:54:09;6.17;;;3.03;;
25327;SDS011;13279;51.300;12.394;2023-07-22T09:56:43;2.87;;;2.67;;
25327;SDS011;13279;51.300;12.394;2023-07-22T09:59:13;2.80;;;2.60;;
25327;SDS011;13279;51.300;12.394;2023-07-22T10:01:44;6.77;;;3.00;;
25327;SDS011;13279;51.300;12.394;2023-07-22T10:04:15;2.70;;;2.50;;
25327;SDS011;13279;51.300;12.394;2023-07-22T10:06:43;4.30;;;2.87;;
25327;SDS011;13279;51.300;12.394;2023-07-22T10:09:11;4.00;;;3.00;;
25327;SDS011;13279;51.300;12.394;2023-07-22T10:11:42;2.67;;;2.47;;
25327;SDS011;13279;51.300;12.394;2023-07-22T10:14:09;2.90;;;2.60;;
25327;SDS011;13279;51.300;12.394;2023-07-22T10:16:41;2.90;;;2.60;;
25327;SDS011;13279;51.300;12.394;2023-07-22T10:19:09;2.50;;;2.30;;
25327;SDS011;13279;51.300;12.394;2023-07-22T10:21:38;3.50;;;2.67;;
25327;SDS011;13279;51.300;12.394;2023-07-22T10:24:05;3.10;;;2.80;;
25327;SDS011;13279;51.300;12.394;2023-07-22T10:26:34;2.93;;;2.73;;
25327;SDS011;13279;51.300;12.394;2023-07-22T10:29:02;3.43;;;2.77;;
25327;SDS011;13279;51.300;12.394;2023-07-22T10:31:30;5.97;;;2.80;;
25327;SDS011;13279;51.300;12.394;2023-07-22T10:34:00;6.27;;;2.80;;
25327;SDS011;13279;51.300;12.394;2023-07-22T10:36:28;5.10;;;2.50;;
25327;SDS011;13279;51.300;12.394;2023-07-22T10:38:57;6.17;;;2.53;;
25327;SDS011;13279;51.300;12.394;2023-07-22T10:41:26;4.30;;;3.07;;
25327;SDS011;13279;51.300;12.394;2023-07-22T10:43:54;2.60;;;2.40;;
25327;SDS011;13279;51.300;12.394;2023-07-22T10:46:30;3.93;;;2.37;;
25327;SDS011;13279;51.300;12.394;2023-07-22T10:49:08;5.90;;;2.73;;
25327;SDS011;13279;51.300;12.394;2023-07-22T10:51:38;2.87;;;2.30;;
25327;SDS011;13279;51.300;12.394;2023-07-22T10:54:10;2.53;;;2.33;;
25327;SDS011;13279;51.300;12.394;2023-07-22T10:56:40;2.80;;;2.40;;
25327;SDS011;13279;51.300;12.394;2023-07-22T10:59:09;6.00;;;2.70;;
25327;SDS011;13279;51.300;12.394;2023-07-22T11:01:38;4.93;;;2.63;;
25327;SDS011;13279;51.300;12.394;2023-07-22T11:04:08;5.40;;;2.63;;
25327;SDS011;13279;51.300;12.394;2023-07-22T11:06:56;2.43;;;2.23;;
25327;SDS011;13279;51.300;12.394;2023-07-22T11:09:38;3.43;;;2.50;;
25327;SDS011;13279;51.300;12.394;2023-07-22T11:12:08;2.87;;;2.60;;
25327;SDS011;13279;51.300;12.394;2023-07-22T11:14:39;2.70;;;2.50;;
25327;SDS011;13279;51.300;12.394;2023-07-22T11:17:12;3.23;;;2.20;;
25327;SDS011;13279;51.300;12.394;2023-07-22T11:19:41;4.13;;;2.37;;
25327;SDS011;13279;51.300;12.394;2023-07-22T11:22:09;3.23;;;2.50;;
25327;SDS011;13279;51.300;12.394;2023-07-22T11:24:37;5.10;;;2.40;;
25327;SDS011;13279;51.300;12.394;2023-07-22T11:27:05;2.53;;;2.30;;
25327;SDS011;13279;51.300;12.394;2023-07-22T11:29:35;3.10;;;2.03;;
25327;SDS011;13279;51.300;12.394;2023-07-22T11:32:03;4.20;;;2.70;;
25327;SDS011;13279;51.300;12.394;2023-07-22T11:34:31;2.90;;;2.70;;
25327;SDS011;13279;51.300;12.394;2023-07-22T11:37:00;5.03;;;2.57;;
25327;SDS011;13279;51.300;12.394;2023-07-22T11:39:28;3.43;;;2.93;;
25327;SDS011;13279;51.300;12.394;2023-07-22T11:41:59;2.90;;;2.60;;
25327;SDS011;13279;51.300;12.394;2023-07-22T11:44:28;2.67;;;2.40;;
25327;SDS011;13279;51.300;12.394;2023-07-22T11:46:57;5.60;;;2.73;;
25327;SDS011;13279;51.300;12.394;2023-07-22T11:49:26;3.30;;;2.67;;
25327;SDS011;13279;51.300;12.394;2023-07-22T11:51:55;4.17;;;2.47;;
25327;SDS011;13279;51.300;12.394;2023-07-22T11:54:26;4.30;;;2.57;;
25327;SDS011;13279;51.300;12.394;2023-07-22T11:56:54;4.73;;;2.60;;
25327;SDS011;13279;51.300;12.394;2023-07-22T11:59:35;2.77;;;2.57;;
25327;SDS011;13279;51.300;12.394;2023-07-22T12:02:03;2.60;;;2.40;;
25327;SDS011;13279;51.300;12.394;2023-07-22T12:04:31;3.10;;;2.80;;
25327;SDS011;13279;51.300;12.394;2023-07-22T12:07:00;4.07;;;2.50;;
25327;SDS011;13279;51.300;12.394;2023-07-22T12:09:30;4.43;;;2.80;;
25327;SDS011;13279;51.300;12.394;2023-07-22T12:11:59;3.50;;;2.50;;
25327;SDS011;13279;51.300;12.394;2023-07-22T12:14:33;3.97;;;3.00;;
25327;SDS011;13279;51.300;12.394;2023-07-22T12:17:02;3.07;;;2.77;;
25327;SDS011;13279;51.300;12.394;2023-07-22T12:19:36;5.60;;;3.00;;
25327;SDS011;13279;51.300;12.394;2023-07-22T12:22:04;3.13;;;2.83;;
25327;SDS011;13279;51.300;12.394;2023-07-22T12:24:33;4.80;;;3.37;;
25327;SDS011;13279;51.300;12.394;2023-07-22T12:27:01;3.37;;;3.07;;
25327;SDS011;13279;51.300;12.394;2023-07-22T12:29:29;3.07;;;2.77;;
25327;SDS011;13279;51.300;12.394;2023-07-22T12:31:57;3.73;;;3.07;;
25327;SDS011;13279;51.300;12.394;2023-07-22T12:34:25;3.23;;;2.97;;
25327;SDS011;13279;51.300;12.394;2023-07-22T12:36:52;5.83;;;3.37;;
25327;SDS011;13279;51.300;12.394;2023-07-22T12:39:20;6.17;;;2.83;;
25327;SDS011;13279;51.300;12.394;2023-07-22T12:41:49;3.17;;;2.87;;
25327;SDS011;13279;51.300;12.394;2023-07-22T12:44:17;2.90;;;2.60;;
25327;SDS011;13279;51.300;12.394;2023-07-22T12:46:44;3.00;;;2.60;;
25327;SDS011;13279;51.300;12.394;2023-07-22T12:49:13;3.00;;;2.80;;
25327;SDS011;13279;51.300;12.394;2023-07-22T12:51:40;3.20;;;2.90;;
25327;SDS011;13279;51.300;12.394;2023-07-22T12:54:08;2.60;;;2.30;;
25327;SDS011;13279;51.300;12.394;2023-07-22T12:56:36;2.97;;;2.67;;
25327;SDS011;13279;51.300;12.394;2023-07-22T12:59:05;2.83;;;2.53;;
25327;SDS011;13279;51.300;12.394;2023-07-22T13:01:33;5.20;;;3.80;;
25327;SDS011;13279;51.300;12.394;2023-07-22T13:04:05;4.37;;;2.83;;
25327;SDS011;13279;51.300;12.394;2023-07-22T13:06:33;4.07;;;3.20;;
25327;SDS011;13279;51.300;12.394;2023-07-22T13:09:02;3.53;;;3.00;;
25327;SDS011;13279;51.300;12.394;2023-07-22T13:11:30;3.93;;;2.83;;
25327;SDS011;13279;51.300;12.394;2023-07-22T13:13:57;3.23;;;2.93;;
25327;SDS011;13279;51.300;12.394;2023-07-22T13:16:26;3.17;;;2.97;;
25327;SDS011;13279;51.300;12.394;2023-07-22T13:18:54;2.67;;;2.47;;
25327;SDS011;13279;51.300;12.394;2023-07-22T13:21:25;5.40;;;2.60;;
25327;SDS011;13279;51.300;12.394;2023-07-22T13:23:52;3.13;;;2.93;;
25327;SDS011;13279;51.300;12.394;2023-07-22T13:26:20;3.47;;;3.17;;
25327;SDS011;13279;51.300;12.394;2023-07-22T13:28:48;4.33;;;3.50;;
25327;SDS011;13279;51.300;12.394;2023-07-22T13:31:15;2.97;;;2.77;;
25327;SDS011;13279;51.300;12.394;2023-07-22T13:33:44;3.67;;;2.77;;
25327;SDS011;13279;51.300;12.394;2023-07-22T13:36:12;3.27;;;2.97;;
25327;SDS011;13279;51.300;12.394;2023-07-22T13:38:40;7.47;;;3.20;;
25327;SDS011;13279;51.300;12.394;2023-07-22T13:41:08;2.93;;;2.67;;
25327;SDS011;13279;51.300;12.394;2023-07-22T13:43:36;4.23;;;2.83;;
25327;SDS011;13279;51.300;12.394;2023-07-22T13:46:04;2.93;;;2.63;;
25327;SDS011;13279;51.300;12.394;2023-07-22T13:48:32;3.07;;;2.87;;
25327;SDS011;13279;51.300;12.394;2023-07-22T13:51:01;3.03;;;2.70;;
25327;SDS011;13279;51.300;12.394;2023-07-22T13:53:28;4.67;;;2.77;;
25327;SDS011;13279;51.300;12.394;2023-07-22T13:55:56;3.87;;;3.17;;
25327;SDS011;13279;51.300;12.394;2023-07-22T13:58:24;3.10;;;2.70;;
25327;SDS011;13279;51.300;12.394;2023-07-22T14:00:51;3.57;;;3.23;;
25327;SDS011;13279;51.300;12.394;2023-07-22T14:03:18;2.97;;;2.63;;
25327;SDS011;13279;51.300;12.394;2023-07-22T14:05:46;3.23;;;2.77;;
25327;SDS011;13279;51.300;12.394;2023-07-22T14:08:14;3.30;;;2.63;;
25327;SDS011;13279;51.300;12.394;2023-07-22T14:10:42;3.55;;;2.85;;
25327;SDS011;13279;51.300;12.394;2023-07-22T14:13:09;5.63;;;3.07;;
25327;SDS011;13279;51.300;12.394;2023-07-22T14:15:37;3.10;;;2.85;;
25327;SDS011;13279;51.300;12.394;2023-07-22T14:18:05;2.85;;;2.65;;
25327;SDS011;13279;51.300;12.394;2023-07-22T14:20:33;3.25;;;2.95;;
25327;SDS011;13279;51.300;12.394;2023-07-22T14:23:00;3.25;;;2.95;;
25327;SDS011;13279;51.300;12.394;2023-07-22T14:25:31;2.75;;;2.50;;
25327;SDS011;13279;51.300;12.394;2023-07-22T14:27:58;3.97;;;3.08;;
25327;SDS011;13279;51.300;12.394;2023-07-22T14:30:26;4.72;;;2.95;;
25327;SDS011;13279;51.300;12.394;2023-07-22T14:32:53;7.25;;;2.75;;
25327;SDS011;13279;51.300;12.394;2023-07-22T14:35:21;4.72;;;3.15;;